createdAt,value
2022-10-22T00:01:28.615Z,77.46
2022-10-22T00:03:56.730Z,77.52
2022-10-22T00:06:25.131Z,77.34
2022-10-22T00:08:53.736Z,77.32
2022-10-22T00:11:22.225Z,77.40
2022-10-22T00:13:51.807Z,77.16
2022-10-22T00:16:20.095Z,77.02
2022-10-22T00:18:48.486Z,76.86
2022-10-22T00:21:16.779Z,76.95
2022-10-22T00:23:45.284Z,76.81
2022-10-22T00:26:13.710Z,76.96
2022-10-22T00:28:42.096Z,77.03
2022-10-22T00:31:12.008Z,77.07
2022-10-22T00:33:40.226Z,76.89
2022-10-22T00:36:09.495Z,76.93
2022-10-22T00:38:37.731Z,77.04
2022-10-22T00:41:06.136Z,76.81
2022-10-22T00:43:34.390Z,76.96
2022-10-22T00:46:03.382Z,76.98
2022-10-22T00:48:34.485Z,77.05
2022-10-22T00:51:06.232Z,77.07
2022-10-22T00:53:38.983Z,77.01
2022-10-22T00:56:18.385Z,76.97
2022-10-22T00:58:56.366Z,76.92
2022-10-22T01:01:30.502Z,76.91
2022-10-22T01:04:09.299Z,77.02
2022-10-22T01:06:37.567Z,76.83
2022-10-22T01:09:17.831Z,76.81
2022-10-22T01:11:58.773Z,77.00
2022-10-22T01:14:36.509Z,76.86
2022-10-22T01:20:14.946Z,76.95
2022-10-22T01:23:01.081Z,76.96
2022-10-22T01:25:40.260Z,77.05
2022-10-22T01:28:21.441Z,77.18
2022-10-22T01:30:59.141Z,77.36
2022-10-22T01:33:32.906Z,77.34
2022-10-22T01:36:08.178Z,77.44
2022-10-22T01:38:37.541Z,77.41
2022-10-22T01:41:06.162Z,77.46
2022-10-22T01:43:34.386Z,77.44
2022-10-22T01:46:06.354Z,77.47
2022-10-22T01:48:47.339Z,77.63
2022-10-22T01:51:28.387Z,77.75
2022-10-22T01:54:01.931Z,77.95
2022-10-22T01:56:49.275Z,78.03
2022-10-22T01:59:26.160Z,78.01
2022-10-22T02:02:05.164Z,78.11
2022-10-22T02:04:38.505Z,78.23
2022-10-22T02:07:10.088Z,78.34
2022-10-22T02:09:40.633Z,78.24
2022-10-22T02:12:10.575Z,78.16
2022-10-22T02:14:44.176Z,78.28
2022-10-22T02:17:17.573Z,78.33
2022-10-22T02:19:51.698Z,78.47
2022-10-22T02:22:21.098Z,78.55
2022-10-22T02:24:50.200Z,78.57
2022-10-22T02:27:26.864Z,78.44
2022-10-22T02:30:02.822Z,78.48
2022-10-22T02:32:40.347Z,78.49
2022-10-22T02:35:11.513Z,78.47
2022-10-22T02:37:41.249Z,78.34
2022-10-22T02:40:10.447Z,78.41
2022-10-22T02:42:40.322Z,78.30
2022-10-22T02:45:09.174Z,78.25
2022-10-22T02:47:39.186Z,78.23
2022-10-22T02:50:10.321Z,78.32
2022-10-22T02:52:39.738Z,78.43
2022-10-22T02:55:08.928Z,78.55
2022-10-22T02:57:37.600Z,78.58
2022-10-22T03:00:07.752Z,78.49
2022-10-22T03:02:38.541Z,78.54
2022-10-22T03:05:09.401Z,78.44
2022-10-22T03:07:37.905Z,78.55
2022-10-22T03:10:07.103Z,78.53
2022-10-22T03:12:35.302Z,78.42
2022-10-22T03:15:03.526Z,78.40
2022-10-22T03:17:31.689Z,78.35
2022-10-22T03:19:59.978Z,78.15
2022-10-22T03:22:31.681Z,78.16
2022-10-22T03:25:02.638Z,78.15
2022-10-22T03:27:31.753Z,78.18
2022-10-22T03:30:00.765Z,78.16
2022-10-22T03:32:28.991Z,78.08
2022-10-22T03:34:57.223Z,77.98
2022-10-22T03:37:26.535Z,77.81
2022-10-22T03:39:56.667Z,77.85
2022-10-22T03:42:25.525Z,77.94
2022-10-22T03:44:54.032Z,77.96
2022-10-22T03:47:24.447Z,77.95
2022-10-22T03:49:52.802Z,77.95
2022-10-22T03:52:20.980Z,77.91
2022-10-22T03:54:49.239Z,77.98
2022-10-22T03:57:19.581Z,78.08
2022-10-22T03:59:48.596Z,78.10
2022-10-22T04:02:16.769Z,77.77
2022-10-22T04:04:45.107Z,77.82
2022-10-22T04:07:13.252Z,77.61
2022-10-22T04:09:41.495Z,77.58
2022-10-22T04:12:09.752Z,77.54
2022-10-22T04:14:39.286Z,77.56
2022-10-22T04:17:07.536Z,77.66
2022-10-22T04:19:36.228Z,77.78
2022-10-22T04:22:04.566Z,77.82
2022-10-22T04:24:35.517Z,77.91
2022-10-22T04:27:03.992Z,77.73
2022-10-22T04:29:32.289Z,77.89
2022-10-22T04:32:01.839Z,77.91
2022-10-22T04:34:31.439Z,77.96
2022-10-22T04:36:59.678Z,77.92
2022-10-22T04:39:27.892Z,77.94
2022-10-22T04:41:56.244Z,78.01
2022-10-22T04:44:24.438Z,78.15
2022-10-22T04:46:55.081Z,78.28
2022-10-22T04:49:24.926Z,78.45
2022-10-22T04:51:53.102Z,78.48
2022-10-22T04:54:26.634Z,78.51
2022-10-22T04:56:57.072Z,78.48
2022-10-22T04:59:25.346Z,78.46
2022-10-22T05:01:53.524Z,78.43
2022-10-22T05:04:21.834Z,78.24
2022-10-22T05:06:52.128Z,78.33
2022-10-22T05:09:22.224Z,78.31
2022-10-22T05:11:52.882Z,78.24
2022-10-22T05:14:23.351Z,78.24
2022-10-22T05:16:53.005Z,78.43
2022-10-22T05:19:24.005Z,78.29
2022-10-22T05:21:55.431Z,78.37
2022-10-22T05:24:23.793Z,78.47
2022-10-22T05:26:52.872Z,78.28
2022-10-22T05:29:21.597Z,78.41
2022-10-22T05:31:49.814Z,78.44
2022-10-22T05:34:18.339Z,78.60
2022-10-22T05:36:49.294Z,78.68
2022-10-22T05:39:18.817Z,78.72
2022-10-22T05:41:47.100Z,78.79
2022-10-22T05:44:15.330Z,78.82
2022-10-22T05:46:44.275Z,78.90
2022-10-22T05:49:14.889Z,78.95
2022-10-22T05:51:43.108Z,78.92
2022-10-22T05:54:19.254Z,78.82
2022-10-22T05:56:47.567Z,78.71
2022-10-22T05:59:16.020Z,78.83
2022-10-22T06:01:44.384Z,78.69
2022-10-22T06:04:14.145Z,78.68
2022-10-22T06:06:45.266Z,78.53
2022-10-22T06:09:21.124Z,78.36
2022-10-22T06:11:50.794Z,78.30
2022-10-22T06:14:20.260Z,78.22
2022-10-22T06:16:48.943Z,78.09
2022-10-22T06:19:19.680Z,77.95
2022-10-22T06:21:48.577Z,78.08
2022-10-22T06:24:18.638Z,78.18
2022-10-22T06:26:46.930Z,78.07
2022-10-22T06:29:15.175Z,78.10
2022-10-22T06:31:43.401Z,77.63
2022-10-22T06:34:15.865Z,77.78
2022-10-22T06:36:45.913Z,77.78
2022-10-22T06:39:16.238Z,77.77
2022-10-22T06:41:45.915Z,77.71
2022-10-22T06:44:20.427Z,77.76
2022-10-22T06:46:52.092Z,77.56
2022-10-22T06:49:22.137Z,77.50
2022-10-22T06:51:51.465Z,77.47
2022-10-22T06:54:19.678Z,77.44
2022-10-22T06:56:49.529Z,77.37
2022-10-22T06:59:18.001Z,77.39
2022-10-22T07:01:47.089Z,77.35
2022-10-22T07:04:15.849Z,77.19
2022-10-22T07:06:44.020Z,77.20
2022-10-22T07:09:12.395Z,77.25
2022-10-22T07:11:42.928Z,77.07
2022-10-22T07:14:12.882Z,77.15
2022-10-22T07:16:43.123Z,77.18
2022-10-22T07:19:11.341Z,77.16
2022-10-22T07:21:39.840Z,77.21
2022-10-22T07:24:08.749Z,77.27
2022-10-22T07:26:37.664Z,77.06
2022-10-22T07:29:06.462Z,77.05
2022-10-22T07:31:36.597Z,77.13
2022-10-22T07:34:05.051Z,76.90
2022-10-22T07:36:33.273Z,76.86
2022-10-22T07:39:02.679Z,76.91
2022-10-22T07:41:31.584Z,76.95
2022-10-22T07:44:00.188Z,76.71
2022-10-22T07:46:28.713Z,76.73
2022-10-22T07:48:58.493Z,76.57
2022-10-22T07:51:28.091Z,76.51
2022-10-22T07:53:56.302Z,76.54
2022-10-22T07:56:24.579Z,76.57
2022-10-22T07:58:52.918Z,76.60
2022-10-22T08:01:21.232Z,76.27
2022-10-22T08:03:49.932Z,76.43
2022-10-22T08:06:19.538Z,76.50
2022-10-22T08:08:47.721Z,76.45
2022-10-22T08:11:16.312Z,76.37
2022-10-22T08:13:45.830Z,76.28
2022-10-22T08:16:15.609Z,76.51
2022-10-22T08:18:44.187Z,76.10
2022-10-22T08:21:12.485Z,76.21
2022-10-22T08:23:42.038Z,76.00
2022-10-22T08:26:10.439Z,76.10
2022-10-22T08:28:38.818Z,76.33
2022-10-22T08:31:08.501Z,76.16
2022-10-22T08:33:38.775Z,76.18
2022-10-22T08:36:07.985Z,76.31
2022-10-22T08:38:36.705Z,76.12
2022-10-22T08:41:11.138Z,76.21
2022-10-22T08:44:05.433Z,76.66
2022-10-22T08:46:45.977Z,75.88
2022-10-22T08:49:20.258Z,75.92
2022-10-22T08:51:48.756Z,75.91
2022-10-22T08:54:25.035Z,75.58
2022-10-22T08:57:07.845Z,75.60
2022-10-22T08:59:42.170Z,75.56
2022-10-22T09:02:27.140Z,75.20
2022-10-22T09:05:03.330Z,75.30
2022-10-22T09:07:31.712Z,75.44
2022-10-22T09:10:01.593Z,74.72
2022-10-22T09:12:31.300Z,75.02
2022-10-22T09:15:02.216Z,75.49
2022-10-22T09:17:37.016Z,74.55
2022-10-22T09:20:15.949Z,74.76
2022-10-22T09:22:51.600Z,75.66
2022-10-22T09:25:22.212Z,74.73
2022-10-22T09:27:54.382Z,74.57
2022-10-22T09:30:25.628Z,74.60
2022-10-22T09:33:00.342Z,74.52
2022-10-22T09:35:29.210Z,74.83
2022-10-22T09:37:58.139Z,74.16
2022-10-22T09:40:26.412Z,74.10
2022-10-22T09:42:56.028Z,73.50
2022-10-22T09:45:26.751Z,74.03
2022-10-22T09:48:10.721Z,73.90
2022-10-22T09:50:44.274Z,74.06
2022-10-22T09:53:15.883Z,73.47
2022-10-22T09:55:44.650Z,73.27
2022-10-22T09:58:15.348Z,73.33
2022-10-22T10:00:49.524Z,73.06
2022-10-22T10:03:20.583Z,73.49
2022-10-22T10:05:54.079Z,73.49
2022-10-22T10:08:23.523Z,74.09
2022-10-22T10:10:55.140Z,72.48
2022-10-22T10:13:39.375Z,73.36
2022-10-22T10:16:17.129Z,72.53
2022-10-22T10:19:01.603Z,73.22
2022-10-22T10:21:40.810Z,73.86
2022-10-22T10:24:17.855Z,73.42
2022-10-22T10:26:55.897Z,73.99
2022-10-22T10:29:40.437Z,73.64
2022-10-22T10:32:25.152Z,73.30
2022-10-22T10:35:04.352Z,72.51
2022-10-22T10:37:39.976Z,73.13
2022-10-22T10:40:23.002Z,73.58
2022-10-22T10:43:01.398Z,73.19
2022-10-22T10:45:38.206Z,73.21
2022-10-22T10:48:16.582Z,73.48
2022-10-22T10:50:58.010Z,73.49
2022-10-22T10:53:39.988Z,73.50
2022-10-22T10:56:18.037Z,73.57
2022-10-22T10:58:52.977Z,72.98
2022-10-22T11:01:29.051Z,73.59
2022-10-22T11:04:15.222Z,72.71
2022-10-22T11:06:45.531Z,72.83
2022-10-22T11:09:28.539Z,72.91
2022-10-22T11:11:59.301Z,72.74
2022-10-22T11:14:33.492Z,73.23
2022-10-22T11:17:10.284Z,73.39
2022-10-22T11:19:52.960Z,72.54
2022-10-22T11:22:27.675Z,72.38
2022-10-22T11:25:02.433Z,72.16
2022-10-22T11:27:37.108Z,72.03
2022-10-22T11:30:07.683Z,71.46
2022-10-22T11:32:37.462Z,71.93
2022-10-22T11:35:09.207Z,71.38
2022-10-22T11:37:39.534Z,71.51
2022-10-22T11:40:15.971Z,71.29
2022-10-22T11:42:53.175Z,71.60
2022-10-22T11:45:32.893Z,71.67
2022-10-22T11:48:16.034Z,70.97
2022-10-22T11:50:52.992Z,70.80
2022-10-22T11:53:30.689Z,69.17
2022-10-22T11:56:03.925Z,70.03
2022-10-22T11:58:36.202Z,69.44
2022-10-22T12:01:30.459Z,69.26
2022-10-22T12:04:22.542Z,70.26
2022-10-22T12:07:01.732Z,69.65
2022-10-22T12:09:32.802Z,69.73
2022-10-22T12:12:22.175Z,70.61
2022-10-22T12:14:55.768Z,70.97
2022-10-22T12:17:24.905Z,71.68
2022-10-22T12:20:02.216Z,72.05
2022-10-22T12:22:33.283Z,71.73
2022-10-22T12:25:03.201Z,71.97
2022-10-22T12:27:36.785Z,72.21
2022-10-22T12:30:18.941Z,72.30
2022-10-22T12:32:47.201Z,72.67
2022-10-22T12:35:19.941Z,71.87
2022-10-22T12:37:50.872Z,71.38
2022-10-22T12:40:21.722Z,71.13
2022-10-22T12:42:52.362Z,71.41
2022-10-22T12:45:21.581Z,71.45
2022-10-22T12:47:51.816Z,71.77
2022-10-22T12:50:24.407Z,71.76
2022-10-22T12:52:56.203Z,71.82
2022-10-22T12:55:26.984Z,70.85
2022-10-22T12:57:55.370Z,70.94
2022-10-22T13:00:26.301Z,71.03
2022-10-22T13:02:55.769Z,70.15
2022-10-22T13:05:28.042Z,70.66
2022-10-22T13:08:05.123Z,70.96
2022-10-22T13:10:34.918Z,70.13
2022-10-22T13:13:04.070Z,70.32
2022-10-22T13:15:38.304Z,71.06
2022-10-22T13:18:16.060Z,71.23
2022-10-22T13:20:58.907Z,71.48
2022-10-22T13:23:30.046Z,71.06
2022-10-22T13:26:00.503Z,71.42
2022-10-22T13:28:29.903Z,69.93
2022-10-22T13:30:59.234Z,68.83
2022-10-22T13:33:31.496Z,69.16
2022-10-22T13:36:01.190Z,68.64
2022-10-22T13:38:29.851Z,69.25
2022-10-22T13:40:59.331Z,69.16
2022-10-22T13:43:27.800Z,68.84
2022-10-22T13:45:59.128Z,69.33
2022-10-22T13:48:32.583Z,68.85
2022-10-22T13:51:02.308Z,70.40
2022-10-22T13:53:31.974Z,69.67
2022-10-22T13:56:00.262Z,70.77
2022-10-22T13:58:28.589Z,70.48
2022-10-22T14:00:59.029Z,70.54
2022-10-22T14:03:31.280Z,70.87
2022-10-22T14:05:59.638Z,70.73
2022-10-22T14:08:31.673Z,71.39
2022-10-22T14:10:59.927Z,70.08
2022-10-22T14:13:28.342Z,69.66
2022-10-22T14:15:56.625Z,70.42
2022-10-22T14:18:31.552Z,70.28
2022-10-22T14:21:04.825Z,70.71
2022-10-22T14:23:36.830Z,71.03
2022-10-22T14:26:08.867Z,70.19
2022-10-22T14:28:41.382Z,70.00
2022-10-22T14:31:20.252Z,70.05
2022-10-22T14:33:48.876Z,69.76
2022-10-22T14:36:18.891Z,70.83
2022-10-22T14:38:49.689Z,70.05
2022-10-22T14:41:21.658Z,70.40
2022-10-22T14:43:50.977Z,70.91
2022-10-22T14:46:21.055Z,70.19
2022-10-22T14:48:49.610Z,70.53
2022-10-22T14:51:19.471Z,70.16
2022-10-22T14:53:49.784Z,70.93
2022-10-22T14:56:21.254Z,70.90
2022-10-22T14:58:50.131Z,70.81
2022-10-22T15:01:18.649Z,70.19
2022-10-22T15:03:46.892Z,70.74
2022-10-22T15:06:15.049Z,70.84
2022-10-22T15:08:43.500Z,71.02
2022-10-22T15:11:14.091Z,71.24
2022-10-22T15:13:42.356Z,71.70
2022-10-22T15:16:12.572Z,71.92
2022-10-22T15:18:40.699Z,72.46
2022-10-22T15:21:14.464Z,71.89
2022-10-22T15:23:43.160Z,72.16
2022-10-22T15:26:14.076Z,73.01
2022-10-22T15:28:43.354Z,72.95
2022-10-22T15:31:13.818Z,72.67
2022-10-22T15:33:44.464Z,72.87
2022-10-22T15:36:14.693Z,73.19
2022-10-22T15:38:43.266Z,73.61
2022-10-22T15:41:13.989Z,73.99
2022-10-22T15:43:42.186Z,73.37
2022-10-22T15:46:13.655Z,73.39
2022-10-22T15:48:42.421Z,73.63
2022-10-22T15:51:12.049Z,73.36
2022-10-22T15:53:40.333Z,73.53
2022-10-22T15:56:09.548Z,73.90
2022-10-22T15:58:39.149Z,73.66
2022-10-22T16:01:08.471Z,73.78
2022-10-22T16:03:36.970Z,74.04
2022-10-22T16:06:07.171Z,74.12
2022-10-22T16:08:35.873Z,74.47
2022-10-22T16:11:04.595Z,74.81
2022-10-22T16:13:32.929Z,74.73
2022-10-22T16:16:07.038Z,74.94
2022-10-22T16:18:35.519Z,74.92
2022-10-22T16:21:04.902Z,75.40
2022-10-22T16:23:33.117Z,75.63
2022-10-22T16:26:02.906Z,75.74
2022-10-22T16:31:10.595Z,75.97
2022-10-22T16:33:43.031Z,76.08
2022-10-22T16:36:18.943Z,76.21
2022-10-22T16:38:47.791Z,76.28
2022-10-22T16:41:18.507Z,76.28
2022-10-22T16:43:48.456Z,76.38
2022-10-22T16:46:20.253Z,76.30
2022-10-22T16:48:50.065Z,76.15
2022-10-22T16:51:20.427Z,76.01
2022-10-22T16:53:49.495Z,75.90
2022-10-22T16:56:18.862Z,76.12
2022-10-22T16:58:49.736Z,76.21
2022-10-22T17:01:21.166Z,76.44
2022-10-22T17:03:49.597Z,76.69
2022-10-22T17:06:17.747Z,76.83
2022-10-22T17:08:45.936Z,76.86
2022-10-22T17:11:17.330Z,76.99
2022-10-22T17:13:46.904Z,77.08
2022-10-22T17:16:17.436Z,77.21
2022-10-22T17:18:47.941Z,77.20
2022-10-22T17:21:17.101Z,77.02
2022-10-22T17:23:45.656Z,77.05
2022-10-22T17:26:17.472Z,77.02
2022-10-22T17:28:46.189Z,77.08
2022-10-22T17:31:18.853Z,77.34
2022-10-22T17:33:50.897Z,77.46
2022-10-22T17:36:19.659Z,77.53
2022-10-22T17:38:51.499Z,77.53
2022-10-22T17:41:21.940Z,77.70
2022-10-22T17:43:50.238Z,77.74
2022-10-22T17:46:19.951Z,77.85
2022-10-22T17:48:53.065Z,77.89
2022-10-22T17:51:23.039Z,77.91
2022-10-22T17:53:51.497Z,77.96
2022-10-22T17:56:21.122Z,78.01
2022-10-22T17:58:50.014Z,78.01
2022-10-22T18:01:20.964Z,78.11
2022-10-22T18:03:53.343Z,78.18
2022-10-22T18:06:22.008Z,78.18
2022-10-22T18:08:50.437Z,78.08
2022-10-22T18:11:21.209Z,78.18
2022-10-22T18:13:50.313Z,78.25
2022-10-22T18:16:18.907Z,78.27
2022-10-22T18:18:48.438Z,78.22
2022-10-22T18:21:18.665Z,78.24
2022-10-22T18:23:47.523Z,78.18
2022-10-22T18:26:17.910Z,78.18
2022-10-22T18:28:48.754Z,78.14
2022-10-22T18:31:20.227Z,78.14
2022-10-22T18:33:48.898Z,78.05
2022-10-22T18:36:21.490Z,78.12
2022-10-22T18:38:50.932Z,78.30
2022-10-22T18:41:19.394Z,78.33
2022-10-22T18:43:51.699Z,78.45
2022-10-22T18:46:19.985Z,78.37
2022-10-22T18:48:48.361Z,78.43
2022-10-22T18:51:18.365Z,78.50
2022-10-22T18:53:59.061Z,78.69
2022-10-22T18:56:33.906Z,78.77
2022-10-22T18:59:02.189Z,78.79
2022-10-22T19:01:30.581Z,78.69
2022-10-22T19:03:58.973Z,78.64
2022-10-22T19:06:34.562Z,78.51
2022-10-22T19:09:06.074Z,78.41
2022-10-22T19:11:36.522Z,78.34
2022-10-22T19:14:04.849Z,78.16
2022-10-22T19:16:34.792Z,77.98
2022-10-22T19:19:04.994Z,77.69
2022-10-22T19:21:34.903Z,77.30
2022-10-22T19:24:03.176Z,77.15
2022-10-22T19:26:32.035Z,77.15
2022-10-22T19:29:01.133Z,77.11
2022-10-22T19:31:31.293Z,77.13
2022-10-22T19:34:00.578Z,77.27
2022-10-22T19:36:32.643Z,77.27
2022-10-22T19:39:03.642Z,77.34
2022-10-22T19:41:32.937Z,77.29
2022-10-22T19:44:01.864Z,77.34
2022-10-22T19:46:32.559Z,77.23
2022-10-22T19:49:00.979Z,77.10
2022-10-22T19:51:31.447Z,76.97
2022-10-22T19:54:01.140Z,76.98
2022-10-22T19:56:31.345Z,77.05
2022-10-22T19:58:59.889Z,77.14
2022-10-22T20:01:28.727Z,77.23
2022-10-22T20:03:56.943Z,77.29
2022-10-22T20:06:25.235Z,77.46
2022-10-22T20:08:56.032Z,77.43
2022-10-22T20:11:27.005Z,77.45
2022-10-22T20:13:57.610Z,77.69
2022-10-22T20:16:28.564Z,77.76
2022-10-22T20:19:00.453Z,77.84
2022-10-22T20:21:29.089Z,78.05
2022-10-22T20:23:57.656Z,78.11
2022-10-22T20:26:28.195Z,78.24
2022-10-22T20:28:59.227Z,78.38
2022-10-22T20:31:30.057Z,78.38
2022-10-22T20:33:59.519Z,78.20
2022-10-22T20:36:31.154Z,78.06
2022-10-22T20:39:02.129Z,77.95
2022-10-22T20:41:30.831Z,77.88
2022-10-22T20:44:00.642Z,77.89
2022-10-22T20:46:30.784Z,77.99
2022-10-22T20:49:02.385Z,77.96
2022-10-22T20:51:30.733Z,77.85
2022-10-22T20:53:58.941Z,77.74
2022-10-22T20:56:28.008Z,77.87
2022-10-22T20:59:04.465Z,77.84
2022-10-22T21:01:36.738Z,77.85
2022-10-22T21:04:05.563Z,78.00
2022-10-22T21:06:37.846Z,78.14
2022-10-22T21:09:07.102Z,78.27
2022-10-22T21:11:35.845Z,78.35
2022-10-22T21:14:04.870Z,78.28
2022-10-22T21:16:34.863Z,78.24
2022-10-22T21:19:03.334Z,78.08
2022-10-22T21:21:31.670Z,77.93
2022-10-22T21:23:59.908Z,77.80
2022-10-22T21:26:28.467Z,77.64
2022-10-22T21:28:56.729Z,77.66
2022-10-22T21:31:26.279Z,77.63
2022-10-22T21:33:55.987Z,77.68
2022-10-22T21:36:25.085Z,77.74
2022-10-22T21:38:53.837Z,77.79
2022-10-22T21:41:23.890Z,77.82
2022-10-22T21:43:52.903Z,77.83
2022-10-22T21:46:23.197Z,77.82
2022-10-22T21:48:56.208Z,77.74
2022-10-22T21:51:25.580Z,77.77
2022-10-22T21:53:54.769Z,77.75
2022-10-22T21:56:24.323Z,77.80
2022-10-22T21:58:52.779Z,77.93
2022-10-22T22:01:21.392Z,78.11
2022-10-22T22:03:50.923Z,78.26
2022-10-22T22:06:25.647Z,78.24
2022-10-22T22:08:56.466Z,78.30
2022-10-22T22:11:27.000Z,78.40
2022-10-22T22:13:58.236Z,78.42
2022-10-22T22:16:29.362Z,78.50
2022-10-22T22:18:58.976Z,78.47
2022-10-22T22:21:29.690Z,78.62
2022-10-22T22:24:01.017Z,78.56
2022-10-22T22:26:32.719Z,78.75
2022-10-22T22:29:01.669Z,78.87
2022-10-22T22:31:33.642Z,79.07
2022-10-22T22:34:03.857Z,79.17
2022-10-22T22:36:37.002Z,79.20
2022-10-22T22:39:06.490Z,79.12
2022-10-22T22:41:35.140Z,79.00
2022-10-22T22:44:03.530Z,79.14
2022-10-22T22:46:31.914Z,79.08
2022-10-22T22:49:00.204Z,79.24
2022-10-22T22:51:28.812Z,79.24
2022-10-22T22:54:00.229Z,79.21
2022-10-22T22:56:30.278Z,79.17
2022-10-22T22:58:59.217Z,79.12
2022-10-22T23:01:29.058Z,79.10
2022-10-22T23:03:58.730Z,79.04
2022-10-22T23:06:28.691Z,78.91
2022-10-22T23:08:57.373Z,78.93
2022-10-22T23:11:28.797Z,78.82
2022-10-22T23:13:59.399Z,78.66
2022-10-22T23:16:30.392Z,78.67
2022-10-22T23:18:59.326Z,78.64
2022-10-22T23:21:29.819Z,78.69
2022-10-22T23:24:00.018Z,78.65
2022-10-22T23:26:31.294Z,78.74
2022-10-22T23:29:01.761Z,78.79
2022-10-22T23:31:30.157Z,78.71
2022-10-22T23:33:58.585Z,78.82
2022-10-22T23:36:27.182Z,78.74
2022-10-22T23:38:55.672Z,78.96
2022-10-22T23:41:24.109Z,78.98
2022-10-22T23:43:55.894Z,78.95
2022-10-22T23:46:24.151Z,79.01
2022-10-22T23:48:53.744Z,79.04
2022-10-22T23:51:22.659Z,79.05
2022-10-22T23:53:55.829Z,79.27
2022-10-22T23:56:24.045Z,79.26
2022-10-22T23:58:54.535Z,79.24
